Time;durP1;ratioP1;P1;durP2;ratioP2;P2;SDS_P1;SDS_P2;PMS_P1;PMS_P2;Temp;Humidity;BMP_temperature;BMP_pressure;BME280_temperature;BME280_humidity;BME280_pressure;Samples;Min_cycle;Max_cycle;Signal;HPM_P1;HPM_P2
2022/03/25 00:00:25;;;;;;;;;46.00;38.25;;;;;;;;5006144;28;11507;-75
2022/03/25 00:02:53;;;;;;;;;49.00;41.50;;;;;;;;5023781;28;11464;-76
2022/03/25 00:05:20;;;;;;;;;55.75;43.00;;;;;;;;5006910;28;11468;-76
2022/03/25 00:07:48;;;;;;;;;54.50;40.75;;;;;;;;5027909;28;12212;-76
2022/03/25 00:10:16;;;;;;;;;45.00;34.75;;;;;;;;5023067;28;11544;-77
2022/03/25 00:12:44;;;;;;;;;46.50;39.75;;;;;;;;5002965;28;11504;-77
2022/03/25 00:15:12;;;;;;;;;54.50;39.75;;;;;;;;5018241;28;11463;-77
2022/03/25 00:17:39;;;;;;;;;51.00;42.75;;;;;;;;5034055;28;11479;-77
2022/03/25 00:20:08;;;;;;;;;46.50;39.50;;;;;;;;5025794;28;11505;-77
2022/03/25 00:22:36;;;;;;;;;48.50;40.00;;;;;;;;5034631;28;11624;-77
2022/03/25 00:25:06;;;;;;;;;45.25;39.00;;;;;;;;5027840;28;11476;-77
2022/03/25 00:27:33;;;;;;;;;48.25;40.00;;;;;;;;5023334;28;11650;-77
2022/03/25 00:30:03;;;;;;;;;39.50;38.00;;;;;;;;5016049;28;11534;-76
2022/03/25 00:32:30;;;;;;;;;42.75;37.75;;;;;;;;5020108;28;11428;-76
2022/03/25 00:34:59;;;;;;;;;44.25;38.50;;;;;;;;5003909;28;11460;-77
2022/03/25 00:37:26;;;;;;;;;44.50;37.00;;;;;;;;5020115;28;11500;-76
2022/03/25 00:39:54;;;;;;;;;57.75;46.50;;;;;;;;5003831;28;11481;-76
2022/03/25 00:42:21;;;;;;;;;48.75;39.50;;;;;;;;5020786;28;12397;-77
2022/03/25 00:44:48;;;;;;;;;46.50;39.25;;;;;;;;5021652;28;11555;-76
2022/03/25 00:47:18;;;;;;;;;51.75;38.75;;;;;;;;5019304;28;11470;-76
2022/03/25 00:49:46;;;;;;;;;48.75;41.75;;;;;;;;5003214;28;12099;-75
2022/03/25 00:52:13;;;;;;;;;43.25;38.75;;;;;;;;5024748;28;11493;-75
2022/03/25 00:54:40;;;;;;;;;51.25;41.25;;;;;;;;5023724;28;12142;-76
2022/03/25 00:57:08;;;;;;;;;47.00;37.75;;;;;;;;5024770;28;12227;-75
2022/03/25 00:59:35;;;;;;;;;46.25;37.50;;;;;;;;5023849;28;11598;-76
2022/03/25 01:02:05;;;;;;;;;45.75;39.75;;;;;;;;5023979;28;11643;-76
2022/03/25 01:04:34;;;;;;;;;44.50;39.00;;;;;;;;5005865;28;11644;-76
2022/03/25 01:07:03;;;;;;;;;48.75;42.75;;;;;;;;5021916;28;11546;-77
2022/03/25 01:09:31;;;;;;;;;49.50;41.00;;;;;;;;5023872;28;11627;-76
2022/03/25 01:11:58;;;;;;;;;43.75;41.00;;;;;;;;5023754;28;12334;-76
2022/03/25 01:14:27;;;;;;;;;47.00;41.25;;;;;;;;5007122;28;11669;-76
2022/03/25 01:16:54;;;;;;;;;43.75;38.50;;;;;;;;5023677;28;11547;-76
2022/03/25 01:19:22;;;;;;;;;45.00;41.25;;;;;;;;5022104;28;11524;-76
2022/03/25 01:21:51;;;;;;;;;39.25;37.50;;;;;;;;5013445;28;12362;-76
2022/03/25 01:24:19;;;;;;;;;45.50;39.75;;;;;;;;5023147;28;11527;-76
2022/03/25 01:26:46;;;;;;;;;51.75;42.50;;;;;;;;5006223;28;11740;-77
2022/03/25 01:29:13;;;;;;;;;54.25;42.00;;;;;;;;5021941;28;11539;-77
2022/03/25 01:31:41;;;;;;;;;46.00;40.00;;;;;;;;5022144;28;11559;-77
2022/03/25 01:34:08;;;;;;;;;52.00;45.75;;;;;;;;5004543;28;11543;-77
2022/03/25 01:36:37;;;;;;;;;43.00;36.75;;;;;;;;5020830;28;12373;-76
2022/03/25 01:39:06;;;;;;;;;46.75;39.25;;;;;;;;5023537;28;11564;-77
2022/03/25 01:41:33;;;;;;;;;46.75;41.00;;;;;;;;5010128;28;11526;-79
2022/03/25 01:44:02;;;;;;;;;47.75;41.00;;;;;;;;5023501;28;11662;-77
2022/03/25 01:46:29;;;;;;;;;46.00;40.25;;;;;;;;5030739;28;11521;-77
2022/03/25 01:48:57;;;;;;;;;58.75;45.75;;;;;;;;5021723;28;12230;-77
2022/03/25 01:51:28;;;;;;;;;48.50;40.75;;;;;;;;5028863;28;11550;-78
2022/03/25 01:53:55;;;;;;;;;54.00;43.25;;;;;;;;5026796;28;12319;-78
2022/03/25 01:56:24;;;;;;;;;45.75;41.25;;;;;;;;5019491;28;11567;-77
2022/03/25 01:58:52;;;;;;;;;44.50;40.00;;;;;;;;5004884;28;11555;-77
2022/03/25 02:01:19;;;;;;;;;52.75;41.50;;;;;;;;5023898;28;11474;-77
2022/03/25 02:03:47;;;;;;;;;48.25;39.75;;;;;;;;5027462;28;12216;-77
2022/03/25 02:06:14;;;;;;;;;48.50;39.00;;;;;;;;5026726;28;11517;-77
2022/03/25 02:08:42;;;;;;;;;39.00;30.75;;;;;;;;5022184;28;11553;-77
2022/03/25 02:11:10;;;;;;;;;43.50;39.00;;;;;;;;5031658;28;11570;-77
2022/03/25 02:13:39;;;;;;;;;39.25;31.75;;;;;;;;5018903;28;11551;-77
2022/03/25 02:16:07;;;;;;;;;42.75;33.75;;;;;;;;5019454;28;12467;-77
2022/03/25 02:18:34;;;;;;;;;58.50;44.25;;;;;;;;5019268;28;12287;-76
2022/03/25 02:21:02;;;;;;;;;47.00;38.00;;;;;;;;5017197;28;11554;-77
2022/03/25 02:23:31;;;;;;;;;60.75;43.00;;;;;;;;5025065;28;11543;-77
2022/03/25 02:25:59;;;;;;;;;41.50;38.00;;;;;;;;5023039;28;11520;-77
2022/03/25 02:28:26;;;;;;;;;39.00;35.25;;;;;;;;5026305;28;11626;-77
2022/03/25 02:30:53;;;;;;;;;51.67;44.00;;;;;;;;5023852;28;11471;-77
2022/03/25 02:33:21;;;;;;;;;50.00;41.50;;;;;;;;5027342;28;12310;-77
2022/03/25 02:35:49;;;;;;;;;53.33;42.33;;;;;;;;5021451;28;11518;-76
2022/03/25 02:38:18;;;;;;;;;41.00;37.50;;;;;;;;5028433;28;12340;-76
2022/03/25 02:40:47;;;;;;;;;52.00;41.00;;;;;;;;5023849;28;11574;-77
2022/03/25 02:43:15;;;;;;;;;45.00;43.00;;;;;;;;5017965;28;11549;-77
2022/03/25 02:45:43;;;;;;;;;50.33;40.33;;;;;;;;5023851;28;11606;-77
2022/03/25 02:48:11;;;;;;;;;46.67;40.33;;;;;;;;5023832;28;11650;-77
2022/03/25 02:50:39;;;;;;;;;56.67;46.67;;;;;;;;5023097;28;11556;-77
2022/03/25 02:53:07;;;;;;;;;52.33;43.00;;;;;;;;5020962;28;11541;-77
2022/03/25 02:55:35;;;;;;;;;48.00;42.33;;;;;;;;5020484;28;11648;-76
2022/03/25 02:58:04;;;;;;;;;53.33;43.33;;;;;;;;5003548;28;11556;-78
2022/03/25 03:00:31;;;;;;;;;53.00;44.33;;;;;;;;5021093;28;11447;-78
2022/03/25 03:03:00;;;;;;;;;51.67;40.33;;;;;;;;5018017;28;11654;-78
2022/03/25 03:05:28;;;;;;;;;58.33;43.33;;;;;;;;5019266;28;11547;-77
2022/03/25 03:07:56;;;;;;;;;42.50;37.00;;;;;;;;5020800;28;11665;-77
2022/03/25 03:10:24;;;;;;;;;46.67;39.33;;;;;;;;5003162;28;11616;-78
2022/03/25 03:12:52;;;;;;;;;40.25;39.00;;;;;;;;5019506;28;11542;-78
2022/03/25 03:15:22;;;;;;;;;41.67;33.33;;;;;;;;5021702;28;11520;-77
2022/03/25 03:17:50;;;;;;;;;42.75;40.00;;;;;;;;5018978;28;11525;-79
2022/03/25 03:20:19;;;;;;;;;56.33;44.67;;;;;;;;5018755;28;11561;-77
2022/03/25 03:22:47;;;;;;;;;44.33;41.00;;;;;;;;5016972;28;11529;-77
2022/03/25 03:25:14;;;;;;;;;41.33;37.00;;;;;;;;5019735;28;11544;-77
2022/03/25 03:27:42;;;;;;;;;45.33;38.33;;;;;;;;4999823;28;11594;-77
2022/03/25 03:30:12;;;;;;;;;33.00;29.00;;;;;;;;5003832;28;11675;-77
2022/03/25 03:32:41;;;;;;;;;50.67;42.67;;;;;;;;5026184;28;11664;-78
2022/03/25 03:35:09;;;;;;;;;41.00;36.75;;;;;;;;5019956;28;11552;-78
2022/03/25 03:37:41;;;;;;;;;38.00;31.00;;;;;;;;5019052;28;11548;-78
2022/03/25 03:40:10;;;;;;;;;47.33;40.00;;;;;;;;5021243;28;11556;-79
2022/03/25 03:42:38;;;;;;;;;39.33;33.00;;;;;;;;5026592;28;11554;-77
2022/03/25 03:45:07;;;;;;;;;42.67;37.33;;;;;;;;5021495;28;12846;-78
2022/03/25 03:47:34;;;;;;;;;48.33;40.33;;;;;;;;5021262;28;11548;-79
2022/03/25 03:50:06;;;;;;;;;50.67;42.00;;;;;;;;5020643;28;11528;-79
2022/03/25 03:52:33;;;;;;;;;45.00;38.67;;;;;;;;5019235;28;11516;-79
2022/03/25 03:55:02;;;;;;;;;36.67;32.33;;;;;;;;5020296;28;8939;-77
2022/03/25 03:57:29;;;;;;;;;44.67;40.00;;;;;;;;5020765;28;11589;-78
2022/03/25 03:59:56;;;;;;;;;40.33;39.33;;;;;;;;5021380;28;11652;-77
2022/03/25 04:02:24;;;;;;;;;45.33;40.33;;;;;;;;5019844;28;8810;-77
2022/03/25 04:04:51;;;;;;;;;42.00;37.00;;;;;;;;5022354;28;11541;-80
2022/03/25 04:07:20;;;;;;;;;46.00;41.33;;;;;;;;5021288;28;11582;-79
2022/03/25 04:09:48;;;;;;;;;45.67;40.67;;;;;;;;5021361;28;8882;-79
2022/03/25 04:12:15;;;;;;;;;34.67;32.33;;;;;;;;5021211;28;9623;-80
2022/03/25 04:14:42;;;;;;;;;53.33;43.33;;;;;;;;5020663;28;12430;-80
2022/03/25 04:17:11;;;;;;;;;47.33;40.00;;;;;;;;5009428;28;8880;-80
2022/03/25 04:19:39;;;;;;;;;45.00;35.00;;;;;;;;5021172;28;9452;-78
2022/03/25 04:22:06;;;;;;;;;50.00;42.00;;;;;;;;5021320;28;8974;-77
2022/03/25 04:24:35;;;;;;;;;42.67;36.33;;;;;;;;5021149;28;8850;-77
2022/03/25 04:27:02;;;;;;;;;41.00;35.67;;;;;;;;5024625;28;8847;-78
2022/03/25 04:29:30;;;;;;;;;57.00;40.67;;;;;;;;5006554;28;8842;-77
2022/03/25 04:31:57;;;;;;;;;53.67;40.00;;;;;;;;5029351;28;8925;-78
2022/03/25 04:34:25;;;;;;;;;52.33;43.67;;;;;;;;5029208;28;8874;-78
2022/03/25 04:36:52;;;;;;;;;50.33;42.33;;;;;;;;5011592;28;8882;-78
2022/03/25 04:39:20;;;;;;;;;50.00;40.00;;;;;;;;5025881;28;9690;-77
2022/03/25 04:41:48;;;;;;;;;47.33;41.33;;;;;;;;5028123;28;8887;-78
2022/03/25 04:44:16;;;;;;;;;52.67;42.00;;;;;;;;5011526;28;8876;-77
2022/03/25 04:46:43;;;;;;;;;48.67;43.67;;;;;;;;5014607;28;8843;-77
2022/03/25 04:49:10;;;;;;;;;55.67;41.33;;;;;;;;5025463;28;8858;-77
2022/03/25 04:51:38;;;;;;;;;59.33;46.67;;;;;;;;5021331;28;8866;-77
2022/03/25 04:54:05;;;;;;;;;55.33;42.00;;;;;;;;5005200;28;8899;-77
2022/03/25 04:56:35;;;;;;;;;37.33;37.33;;;;;;;;5005819;28;8892;-77
2022/03/25 04:59:04;;;;;;;;;42.00;41.00;;;;;;;;5019813;28;8879;-79
2022/03/25 05:01:32;;;;;;;;;42.33;39.33;;;;;;;;5020010;28;8827;-79
2022/03/25 05:03:59;;;;;;;;;64.00;48.33;;;;;;;;5021362;28;8929;-79
2022/03/25 05:06:26;;;;;;;;;49.00;43.00;;;;;;;;5022604;28;9004;-78
2022/03/25 05:08:53;;;;;;;;;49.33;39.33;;;;;;;;5024117;28;8918;-79
2022/03/25 05:11:21;;;;;;;;;45.33;39.33;;;;;;;;5027593;28;8901;-81
2022/03/25 05:13:48;;;;;;;;;58.00;43.67;;;;;;;;5023673;28;9418;-78
2022/03/25 05:16:18;;;;;;;;;48.67;39.33;;;;;;;;5024797;28;8854;-79
2022/03/25 05:18:45;;;;;;;;;28.33;26.33;;;;;;;;5021260;28;8867;-80
2022/03/25 05:21:13;;;;;;;;;56.00;44.00;;;;;;;;5017642;28;8869;-78
2022/03/25 05:23:40;;;;;;;;;56.33;43.00;;;;;;;;5003783;28;9013;-78
2022/03/25 05:26:07;;;;;;;;;54.67;42.33;;;;;;;;5002375;28;8981;-80
2022/03/25 05:28:35;;;;;;;;;38.33;37.33;;;;;;;;5011875;28;8863;-78
2022/03/25 05:31:06;;;;;;;;;56.33;43.00;;;;;;;;4997639;28;8813;-78
2022/03/25 05:33:38;;;;;;;;;56.00;43.33;;;;;;;;4982498;28;8861;-81
2022/03/25 05:36:06;;;;;;;;;39.33;37.00;;;;;;;;5002052;28;8881;-77
2022/03/25 05:38:34;;;;;;;;;46.67;40.67;;;;;;;;4986122;28;8858;-77
2022/03/25 05:41:01;;;;;;;;;43.67;39.67;;;;;;;;5003265;28;8999;-78
2022/03/25 05:43:28;;;;;;;;;39.33;38.33;;;;;;;;5003356;28;9645;-79
2022/03/25 05:45:56;;;;;;;;;47.67;43.00;;;;;;;;5001305;28;8900;-78
2022/03/25 05:48:24;;;;;;;;;61.67;47.00;;;;;;;;5002544;28;8895;-78
2022/03/25 05:50:52;;;;;;;;;49.00;40.33;;;;;;;;4998797;28;8911;-77
2022/03/25 05:53:20;;;;;;;;;55.00;45.67;;;;;;;;4999759;28;8872;-75
2022/03/25 05:55:48;;;;;;;;;47.33;42.33;;;;;;;;4999034;28;8861;-77
2022/03/25 05:58:16;;;;;;;;;50.33;41.00;;;;;;;;5000574;28;10072;-77
2022/03/25 06:00:43;;;;;;;;;56.00;44.33;;;;;;;;4999156;28;8813;-77
2022/03/25 06:03:10;;;;;;;;;39.67;37.33;;;;;;;;4999805;28;8904;-78
2022/03/25 06:05:38;;;;;;;;;58.67;47.00;;;;;;;;4988779;28;8877;-77
2022/03/25 06:08:08;;;;;;;;;60.00;46.33;;;;;;;;4999460;28;8899;-77
2022/03/25 06:10:35;;;;;;;;;43.67;39.00;;;;;;;;4999710;28;8906;-77
2022/03/25 06:13:03;;;;;;;;;49.33;42.33;;;;;;;;4998953;28;8893;-76
2022/03/25 06:15:30;;;;;;;;;52.00;43.33;;;;;;;;5000222;28;8920;-77
2022/03/25 06:17:57;;;;;;;;;44.33;39.67;;;;;;;;5000075;28;8844;-78
2022/03/25 06:20:27;;;;;;;;;52.67;43.67;;;;;;;;4999397;28;8872;-77
2022/03/25 06:22:55;;;;;;;;;61.67;47.33;;;;;;;;5001311;28;9007;-77
2022/03/25 06:25:24;;;;;;;;;60.00;46.00;;;;;;;;4999372;28;8889;-78
2022/03/25 06:27:54;;;;;;;;;59.00;47.00;;;;;;;;5001334;28;8885;-84
2022/03/25 06:30:23;;;;;;;;;44.00;38.00;;;;;;;;5013410;28;8865;-87
2022/03/25 06:32:51;;;;;;;;;56.33;43.67;;;;;;;;5004216;28;9052;-84
2022/03/25 06:35:19;;;;;;;;;39.67;30.00;;;;;;;;5019594;28;8965;-83
2022/03/25 06:37:47;;;;;;;;;60.67;48.00;;;;;;;;5021699;28;8902;-85
2022/03/25 06:40:15;;;;;;;;;58.33;47.67;;;;;;;;5022919;28;8854;-84
2022/03/25 06:42:45;;;;;;;;;53.33;39.33;;;;;;;;5021243;28;8943;-82
2022/03/25 06:45:14;;;;;;;;;59.67;46.67;;;;;;;;5025032;28;8881;-84
2022/03/25 06:47:42;;;;;;;;;58.67;46.33;;;;;;;;5021539;28;8869;-85
2022/03/25 06:50:13;;;;;;;;;51.67;41.33;;;;;;;;5022989;28;8857;-84
2022/03/25 06:52:42;;;;;;;;;51.33;43.67;;;;;;;;5008458;28;8867;-81
2022/03/25 06:55:11;;;;;;;;;53.00;42.67;;;;;;;;5004526;28;8878;-82
2022/03/25 06:57:39;;;;;;;;;52.33;45.00;;;;;;;;5019945;28;8874;-76
2022/03/25 07:00:11;;;;;;;;;58.33;49.00;;;;;;;;5017918;28;9710;-76
2022/03/25 07:02:39;;;;;;;;;55.00;47.00;;;;;;;;5019047;28;11585;-76
2022/03/25 07:05:08;;;;;;;;;56.67;47.67;;;;;;;;5019470;28;11535;-76
2022/03/25 07:07:38;;;;;;;;;58.00;48.00;;;;;;;;5018040;28;11638;-77
2022/03/25 07:10:09;;;;;;;;;57.00;49.33;;;;;;;;5004376;28;11542;-74
2022/03/25 07:12:37;;;;;;;;;67.00;49.33;;;;;;;;5018742;28;12425;-75
2022/03/25 07:15:08;;;;;;;;;54.75;41.75;;;;;;;;5017204;28;11537;-78
2022/03/25 07:17:37;;;;;;;;;60.00;48.25;;;;;;;;5018384;28;11715;-76
2022/03/25 07:20:05;;;;;;;;;46.25;43.25;;;;;;;;5009098;28;11512;-74
2022/03/25 07:22:33;;;;;;;;;64.25;50.75;;;;;;;;5021732;28;11513;-75
2022/03/25 07:25:00;;;;;;;;;50.50;39.00;;;;;;;;5021863;28;11516;-77
2022/03/25 07:27:27;;;;;;;;;56.25;47.00;;;;;;;;5021164;28;11530;-73
2022/03/25 07:29:55;;;;;;;;;59.50;46.75;;;;;;;;5020309;28;12246;-71
2022/03/25 07:32:24;;;;;;;;;50.50;41.00;;;;;;;;5016308;28;11469;-72
2022/03/25 07:34:51;;;;;;;;;64.25;54.00;;;;;;;;5014980;28;11545;-73
2022/03/25 07:37:19;;;;;;;;;60.50;47.75;;;;;;;;5018528;28;11562;-73
2022/03/25 07:39:47;;;;;;;;;64.50;49.00;;;;;;;;5014843;28;11594;-73
2022/03/25 07:42:14;;;;;;;;;64.00;53.25;;;;;;;;5019002;28;11538;-74
2022/03/25 07:44:42;;;;;;;;;53.25;46.50;;;;;;;;5016871;28;11630;-73
2022/03/25 07:47:11;;;;;;;;;61.75;48.00;;;;;;;;5018002;28;11548;-74
2022/03/25 07:49:40;;;;;;;;;52.00;40.75;;;;;;;;5015180;28;11539;-75
2022/03/25 07:52:08;;;;;;;;;63.50;48.50;;;;;;;;5019392;28;12252;-75
2022/03/25 07:54:36;;;;;;;;;61.50;50.00;;;;;;;;5018777;28;11526;-74
2022/03/25 07:57:04;;;;;;;;;67.25;49.00;;;;;;;;5017342;28;11549;-74
2022/03/25 07:59:31;;;;;;;;;56.25;48.50;;;;;;;;5017928;28;11578;-74
2022/03/25 08:01:59;;;;;;;;;62.50;51.00;;;;;;;;5023370;28;12396;-74
2022/03/25 08:04:26;;;;;;;;;61.00;48.75;;;;;;;;5027146;28;12339;-74
2022/03/25 08:06:56;;;;;;;;;57.00;46.25;;;;;;;;5026100;28;11558;-73
2022/03/25 08:09:23;;;;;;;;;64.75;49.00;;;;;;;;5007716;28;11554;-74
2022/03/25 08:11:50;;;;;;;;;60.25;49.75;;;;;;;;5026374;28;12402;-74
2022/03/25 08:14:18;;;;;;;;;53.50;43.75;;;;;;;;5025082;28;12288;-74
2022/03/25 08:16:46;;;;;;;;;64.50;52.00;;;;;;;;5026320;28;11570;-74
2022/03/25 08:19:13;;;;;;;;;65.50;53.75;;;;;;;;5024553;28;11551;-74
2022/03/25 08:21:41;;;;;;;;;61.25;48.25;;;;;;;;5023589;28;11564;-75
2022/03/25 08:29:40;;;;;;;;;62.00;50.25;;;;;;;;5020760;28;11598;-74
2022/03/25 08:32:08;;;;;;;;;60.50;50.50;;;;;;;;5035062;28;12337;-74
2022/03/25 08:34:36;;;;;;;;;62.50;51.75;;;;;;;;5024867;28;11512;-74
2022/03/25 08:37:03;;;;;;;;;69.75;53.00;;;;;;;;5011787;28;11597;-74
2022/03/25 08:39:32;;;;;;;;;59.25;48.25;;;;;;;;5028552;28;11505;-74
2022/03/25 08:42:00;;;;;;;;;57.75;47.75;;;;;;;;5034529;28;11503;-74
2022/03/25 08:44:27;;;;;;;;;55.75;47.25;;;;;;;;5024076;28;11476;-75
2022/03/25 08:46:55;;;;;;;;;58.75;48.25;;;;;;;;5020394;28;11460;-74
2022/03/25 08:49:22;;;;;;;;;56.50;45.25;;;;;;;;5023862;28;11492;-74
2022/03/25 08:51:50;;;;;;;;;65.50;49.25;;;;;;;;5033469;28;12287;-74
2022/03/25 08:54:18;;;;;;;;;52.75;44.00;;;;;;;;5024391;28;11489;-74
2022/03/25 08:56:47;;;;;;;;;65.25;49.50;;;;;;;;5034237;28;12171;-74
2022/03/25 08:59:14;;;;;;;;;61.25;50.50;;;;;;;;5014179;28;11504;-74
2022/03/25 09:01:44;;;;;;;;;63.25;50.75;;;;;;;;5026174;28;11481;-75
2022/03/25 09:04:11;;;;;;;;;61.50;49.75;;;;;;;;5027576;28;11293;-74
2022/03/25 09:06:38;;;;;;;;;61.00;47.50;;;;;;;;5030543;28;11508;-74
2022/03/25 09:09:06;;;;;;;;;61.25;48.00;;;;;;;;5029567;28;11245;-74
2022/03/25 09:11:35;;;;;;;;;58.25;47.25;;;;;;;;5033603;28;11082;-75
2022/03/25 09:14:05;;;;;;;;;50.50;41.25;;;;;;;;5033752;28;10911;-76
2022/03/25 09:16:33;;;;;;;;;62.50;46.00;;;;;;;;5028834;28;10879;-76
2022/03/25 09:19:00;;;;;;;;;55.50;44.25;;;;;;;;5028433;28;10787;-76
2022/03/25 09:21:27;;;;;;;;;59.00;47.00;;;;;;;;5030495;28;10461;-76
2022/03/25 09:23:55;;;;;;;;;54.50;42.50;;;;;;;;5032742;28;10358;-76
2022/03/25 09:26:23;;;;;;;;;57.75;46.25;;;;;;;;5015639;28;11162;-77
2022/03/25 09:28:50;;;;;;;;;59.25;47.00;;;;;;;;5024557;28;11192;-76
2022/03/25 09:31:19;;;;;;;;;53.50;43.00;;;;;;;;4910541;28;10901;-76
2022/03/25 09:33:46;;;;;;;;;56.25;45.50;;;;;;;;4909011;28;10399;-76
2022/03/25 09:36:15;;;;;;;;;46.25;40.00;;;;;;;;4943782;28;10360;-77
2022/03/25 09:38:43;;;;;;;;;59.75;46.50;;;;;;;;4907564;28;10028;-76
2022/03/25 09:41:11;;;;;;;;;52.25;42.50;;;;;;;;4901709;28;10029;-76
2022/03/25 09:43:40;;;;;;;;;55.75;46.00;;;;;;;;4924221;28;9937;-76
2022/03/25 09:46:07;;;;;;;;;56.25;46.00;;;;;;;;4909979;28;9950;-76
2022/03/25 09:48:36;;;;;;;;;54.00;45.00;;;;;;;;4900886;28;9880;-76
2022/03/25 09:51:03;;;;;;;;;54.75;43.50;;;;;;;;4973655;28;11121;-77
2022/03/25 09:53:31;;;;;;;;;59.75;48.00;;;;;;;;4906723;28;9687;-76
2022/03/25 09:55:59;;;;;;;;;55.50;45.75;;;;;;;;4906276;28;9680;-76
2022/03/25 09:58:28;;;;;;;;;58.75;48.50;;;;;;;;4915273;28;9846;-76
2022/03/25 10:00:56;;;;;;;;;56.50;46.00;;;;;;;;4913022;28;9681;-76
2022/03/25 10:03:27;;;;;;;;;54.50;46.50;;;;;;;;4913392;28;9853;-76
2022/03/25 10:05:58;;;;;;;;;59.50;47.75;;;;;;;;4913866;28;9929;-76
2022/03/25 10:08:33;;;;;;;;;56.00;48.00;;;;;;;;4904945;28;9917;-76
2022/03/25 10:11:18;;;;;;;;;54.25;42.25;;;;;;;;4915966;28;9714;-76
2022/03/25 10:13:45;;;;;;;;;54.75;42.50;;;;;;;;4905909;28;9717;-76
2022/03/25 10:16:29;;;;;;;;;55.25;45.25;;;;;;;;4903961;28;9805;-76
2022/03/25 10:18:57;;;;;;;;;62.00;47.75;;;;;;;;4914969;28;9693;-76
2022/03/25 10:21:26;;;;;;;;;60.75;49.25;;;;;;;;4973866;28;9691;-75
2022/03/25 10:23:54;;;;;;;;;59.50;46.75;;;;;;;;4973598;28;9957;-76
2022/03/25 10:26:25;;;;;;;;;60.75;46.75;;;;;;;;4908555;28;9820;-75
2022/03/25 10:28:55;;;;;;;;;52.67;44.00;;;;;;;;4927697;28;9799;-76
2022/03/25 10:31:23;;;;;;;;;51.67;43.00;;;;;;;;4995932;28;10158;-76
2022/03/25 10:33:54;;;;;;;;;64.25;50.75;;;;;;;;5033853;28;9337;-75
2022/03/25 10:36:25;;;;;;;;;63.67;49.00;;;;;;;;5011966;28;9433;-76
2022/03/25 10:38:57;;;;;;;;;51.00;42.33;;;;;;;;5029358;28;9396;-75
2022/03/25 10:41:27;;;;;;;;;57.00;45.25;;;;;;;;5029125;28;9408;-76
2022/03/25 10:43:56;;;;;;;;;59.00;46.33;;;;;;;;5026345;28;9438;-76
2022/03/25 10:46:35;;;;;;;;;60.00;49.00;;;;;;;;5029955;28;10533;-76
2022/03/25 10:49:05;;;;;;;;;66.33;51.33;;;;;;;;5025914;28;9566;-76
2022/03/25 10:51:33;;;;;;;;;52.33;45.00;;;;;;;;5026727;28;10279;-76
2022/03/25 10:54:03;;;;;;;;;62.00;50.67;;;;;;;;5023173;28;9392;-77
2022/03/25 10:56:43;;;;;;;;;62.00;48.33;;;;;;;;5030827;28;9933;-77
2022/03/25 10:59:21;;;;;;;;;66.00;50.33;;;;;;;;5022076;28;9315;-76
2022/03/25 11:01:50;;;;;;;;;65.00;50.67;;;;;;;;5031910;28;9030;-76
2022/03/25 11:04:18;;;;;;;;;65.00;51.00;;;;;;;;5028214;28;9118;-75
2022/03/25 11:06:46;;;;;;;;;63.00;48.33;;;;;;;;5029282;28;9092;-76
2022/03/25 11:09:15;;;;;;;;;65.00;52.00;;;;;;;;5027517;28;9120;-76
2022/03/25 11:11:43;;;;;;;;;60.67;49.33;;;;;;;;5013702;28;9207;-76
2022/03/25 11:14:11;;;;;;;;;65.00;50.00;;;;;;;;5010326;28;9064;-75
2022/03/25 11:16:41;;;;;;;;;62.67;49.67;;;;;;;;5017333;28;8955;-76
2022/03/25 11:19:10;;;;;;;;;65.00;50.00;;;;;;;;5032770;28;9024;-76
2022/03/25 11:21:41;;;;;;;;;66.00;51.25;;;;;;;;5025274;28;8850;-76
2022/03/25 11:24:20;;;;;;;;;64.50;51.00;;;;;;;;5003944;28;8853;-80
2022/03/25 11:26:51;;;;;;;;;51.00;43.00;;;;;;;;5016112;28;8850;-76
2022/03/25 11:29:22;;;;;;;;;66.25;51.25;;;;;;;;5019487;28;8870;-77
2022/03/25 11:32:11;;;;;;;;;54.50;45.75;;;;;;;;5024783;28;8807;-75
2022/03/25 11:34:47;;;;;;;;;60.25;48.75;;;;;;;;4993737;28;9672;-77
2022/03/25 11:37:32;;;;;;;;;55.75;45.75;;;;;;;;5016108;28;8854;-78
2022/03/25 11:40:28;;;;;;;;;63.25;49.50;;;;;;;;5020625;28;9609;-78
2022/03/25 11:42:58;;;;;;;;;59.00;47.00;;;;;;;;5025780;28;8873;-77
2022/03/25 11:45:36;;;;;;;;;60.50;49.25;;;;;;;;5021852;28;8988;-74
2022/03/25 11:48:32;;;;;;;;;54.50;46.25;;;;;;;;5019893;28;8872;-75
2022/03/25 11:51:01;;;;;;;;;66.75;52.75;;;;;;;;5020121;28;9746;-75
2022/03/25 11:53:33;;;;;;;;;65.00;49.50;;;;;;;;5020860;28;8864;-74
2022/03/25 11:56:03;;;;;;;;;63.00;49.25;;;;;;;;5001611;28;8990;-74
2022/03/25 11:58:32;;;;;;;;;62.00;47.75;;;;;;;;5004374;28;8862;-74
2022/03/25 12:01:03;;;;;;;;;56.00;46.50;;;;;;;;5021091;28;8941;-73
2022/03/25 12:03:44;;;;;;;;;57.00;46.75;;;;;;;;5022918;28;8885;-76
2022/03/25 12:06:12;;;;;;;;;58.00;46.75;;;;;;;;5020788;28;8865;-78
2022/03/25 12:08:40;;;;;;;;;56.75;46.00;;;;;;;;5014330;28;8862;-75
2022/03/25 12:11:11;;;;;;;;;55.25;44.75;;;;;;;;5020040;28;8893;-74
2022/03/25 12:14:12;;;;;;;;;59.25;46.00;;;;;;;;5015174;28;8907;-75
2022/03/25 12:17:06;;;;;;;;;50.00;41.25;;;;;;;;4957885;28;8879;-75
2022/03/25 12:19:55;;;;;;;;;57.75;44.75;;;;;;;;4941457;28;8895;-75
2022/03/25 12:22:42;;;;;;;;;53.25;44.00;;;;;;;;5008061;28;8850;-74
2022/03/25 12:25:15;;;;;;;;;57.25;47.00;;;;;;;;5017714;28;8854;-76
2022/03/25 12:27:44;;;;;;;;;59.00;48.25;;;;;;;;5027945;28;8896;-75
2022/03/25 12:30:11;;;;;;;;;60.75;48.50;;;;;;;;5012186;28;8857;-73
2022/03/25 12:32:41;;;;;;;;;60.25;48.00;;;;;;;;5014982;28;8848;-76
2022/03/25 12:35:11;;;;;;;;;62.25;49.50;;;;;;;;5018415;28;8937;-75
2022/03/25 12:37:48;;;;;;;;;58.50;45.25;;;;;;;;5020525;28;8956;-75
2022/03/25 12:40:17;;;;;;;;;59.25;48.00;;;;;;;;5027156;28;8882;-74
2022/03/25 12:42:50;;;;;;;;;59.75;46.50;;;;;;;;5012188;28;8865;-74
2022/03/25 12:45:18;;;;;;;;;61.00;48.00;;;;;;;;5017256;28;9058;-76
2022/03/25 12:47:48;;;;;;;;;57.00;46.00;;;;;;;;5016345;28;8889;-76
2022/03/25 12:50:17;;;;;;;;;59.00;45.75;;;;;;;;5013328;28;8941;-77
2022/03/25 12:52:45;;;;;;;;;55.25;43.75;;;;;;;;5026430;28;8886;-75
2022/03/25 12:55:15;;;;;;;;;64.00;50.50;;;;;;;;5025801;28;8858;-76
2022/03/25 12:57:45;;;;;;;;;61.00;48.00;;;;;;;;5022855;28;8880;-76
2022/03/25 13:00:14;;;;;;;;;59.25;45.75;;;;;;;;5032716;28;8860;-76
2022/03/25 13:02:44;;;;;;;;;60.75;47.25;;;;;;;;5026485;28;8884;-75
2022/03/25 13:05:14;;;;;;;;;56.50;46.00;;;;;;;;5031141;28;8880;-75
2022/03/25 13:07:44;;;;;;;;;53.75;45.25;;;;;;;;5024144;28;8990;-75
2022/03/25 13:10:12;;;;;;;;;61.00;48.25;;;;;;;;5024327;28;8886;-75
2022/03/25 13:12:41;;;;;;;;;64.00;50.75;;;;;;;;5019814;28;8838;-75
2022/03/25 13:15:11;;;;;;;;;58.50;48.00;;;;;;;;5019588;28;8858;-75
2022/03/25 13:17:42;;;;;;;;;66.00;52.25;;;;;;;;5023849;28;8870;-75
2022/03/25 13:20:16;;;;;;;;;59.25;48.00;;;;;;;;5022849;28;8906;-75
2022/03/25 13:22:58;;;;;;;;;56.50;44.25;;;;;;;;5025197;28;8862;-74
2022/03/25 13:25:30;;;;;;;;;61.50;48.25;;;;;;;;5023633;28;8850;-75
2022/03/25 13:27:59;;;;;;;;;58.25;46.00;;;;;;;;5025697;28;9000;-75
2022/03/25 13:30:27;;;;;;;;;61.25;49.50;;;;;;;;4962154;28;8785;-75
2022/03/25 13:33:02;;;;;;;;;62.25;50.75;;;;;;;;4912634;28;8913;-75
2022/03/25 13:35:40;;;;;;;;;64.50;52.00;;;;;;;;4924906;28;9768;-76
2022/03/25 13:38:11;;;;;;;;;64.00;50.75;;;;;;;;4924229;29;9019;-75
2022/03/25 13:40:43;;;;;;;;;55.75;45.75;;;;;;;;4923891;29;8912;-76
2022/03/25 13:43:12;;;;;;;;;53.75;45.00;;;;;;;;4922569;28;8947;-76
2022/03/25 13:45:41;;;;;;;;;56.50;45.50;;;;;;;;4962963;28;8870;-75
2022/03/25 13:48:14;;;;;;;;;55.75;44.75;;;;;;;;4949363;28;9689;-76
2022/03/25 13:50:49;;;;;;;;;63.50;50.50;;;;;;;;4935564;28;8904;-76
2022/03/25 13:53:20;;;;;;;;;52.00;43.75;;;;;;;;4984827;28;9641;-77
2022/03/25 13:55:47;;;;;;;;;46.75;38.50;;;;;;;;4957147;28;8869;-76
2022/03/25 13:58:17;;;;;;;;;55.75;46.00;;;;;;;;4953441;28;8880;-76
2022/03/25 14:00:52;;;;;;;;;49.50;42.00;;;;;;;;4972301;28;8792;-76
2022/03/25 14:03:30;;;;;;;;;55.00;45.00;;;;;;;;4955056;28;8873;-74
2022/03/25 14:06:13;;;;;;;;;54.25;45.00;;;;;;;;4914895;28;8902;-75
2022/03/25 14:08:40;;;;;;;;;59.25;46.25;;;;;;;;4987602;28;8892;-74
2022/03/25 14:11:08;;;;;;;;;52.25;43.25;;;;;;;;4937828;28;8877;-76
2022/03/25 14:13:35;;;;;;;;;56.50;44.75;;;;;;;;4923906;29;8857;-75
2022/03/25 14:16:17;;;;;;;;;51.75;42.00;;;;;;;;4923409;28;9019;-74
2022/03/25 14:18:54;;;;;;;;;55.00;44.25;;;;;;;;4924754;29;8876;-75
2022/03/25 14:21:25;;;;;;;;;53.25;43.00;;;;;;;;4918272;29;8886;-75
2022/03/25 14:24:30;;;;;;;;;38.00;32.25;;;;;;;;4912895;28;8892;-75
2022/03/25 14:26:41;;;;;;;;;51.50;40.25;;;;;;;;4923690;28;9425;-75
2022/03/25 14:29:08;;;;;;;;;50.25;40.25;;;;;;;;4930127;28;9640;-76
2022/03/25 14:31:36;;;;;;;;;47.00;39.50;;;;;;;;4991189;28;8841;-75
2022/03/25 14:34:05;;;;;;;;;54.75;42.25;;;;;;;;4923148;28;8900;-75
2022/03/25 14:36:33;;;;;;;;;45.00;37.75;;;;;;;;4924426;29;8909;-75
2022/03/25 14:39:02;;;;;;;;;45.50;38.75;;;;;;;;4922935;29;8903;-76
2022/03/25 14:41:29;;;;;;;;;44.50;38.25;;;;;;;;4912995;28;8877;-75